Divisa Nova, Brazil
Current Conditions -  °F | °C
As of 12:00 PM on Monday 22 Dec 2014 (Local Time) from SBYS Reporting Station
Broken Clouds Broken Clouds  
Wind Chill: 84°   Ceiling: 3000
Heat Index: 90°   Visibility: 6mi
Dew Point: 72°   Wind: 16mph
Humidity: 66%   Direction: 310°NW
Pressure: 29.97"   Gusts: NA
Location:  21.51°S, 46.2°W
Report Text: SBYS 221400Z 31014KT 9999 SCT020 BKN030 BKN080 29/22 Q1015
Loading
Personal Weather Stations






























Interactive Weather Map New forecast layout! Learn more

10-Day Weather Forecast

Advertisements
Track Severe Weather on mobile